Time;durP1;ratioP1;P1;durP2;ratioP2;P2;SDS_P1;SDS_P2;PMS_P1;PMS_P2;Temp;Humidity;BMP_temperature;BMP_pressure;BME280_temperature;BME280_humidity;BME280_pressure;Samples;Min_cycle;Max_cycle;Signal;HPM_P1;HPM_P2
2021/12/07 00:00:55;;;;;;;85.28;40.15;;;-0.70;99.90;;;;;;4973996;28;20102;-86
2021/12/07 00:03:21;;;;;;;92.53;40.20;;;-0.70;99.90;;;;;;4974077;28;20117;-86
2021/12/07 00:05:48;;;;;;;81.63;41.70;;;-0.70;99.90;;;;;;4958090;28;20498;-87
2021/12/07 00:08:14;;;;;;;98.78;40.15;;;-0.70;99.90;;;;;;4974312;28;20035;-87
2021/12/07 00:10:41;;;;;;;86.20;39.80;;;-0.80;99.90;;;;;;4959307;29;20035;-87
2021/12/07 00:13:09;;;;;;;89.50;40.33;;;-0.80;99.90;;;;;;4974073;28;20498;-86
2021/12/07 00:15:36;;;;;;;91.18;39.92;;;-0.80;99.90;;;;;;4973864;28;20510;-85
2021/12/07 00:18:03;;;;;;;92.97;39.47;;;-0.80;99.90;;;;;;4973612;28;20031;-87
2021/12/07 00:20:29;;;;;;;84.13;39.38;;;-0.80;99.90;;;;;;4973860;28;20031;-87
2021/12/07 00:22:58;;;;;;;80.68;37.47;;;-0.80;99.90;;;;;;4973762;28;20394;-87
2021/12/07 00:25:25;;;;;;;79.68;37.72;;;-0.80;99.90;;;;;;4973783;28;20086;-87
2021/12/07 00:27:52;;;;;;;67.35;34.55;;;-0.80;99.90;;;;;;4974176;28;20067;-86
2021/12/07 00:30:18;;;;;;;76.22;36.35;;;-0.80;99.90;;;;;;4973798;28;20035;-87
2021/12/07 00:32:52;;;;;;;74.03;35.10;;;-0.80;99.90;;;;;;4974240;28;20034;-87
2021/12/07 00:37:52;;;;;;;61.47;30.52;;;-0.80;99.90;;;;;;4959038;29;20031;-86
2021/12/07 00:40:20;;;;;;;59.80;30.70;;;-0.70;99.90;;;;;;4973886;28;20844;-87
2021/12/07 00:42:46;;;;;;;64.97;30.58;;;-0.70;99.90;;;;;;4973556;28;20046;-86
2021/12/07 00:45:16;;;;;;;62.88;30.80;;;-0.80;99.90;;;;;;4973497;28;20032;-86
2021/12/07 00:47:41;;;;;;;61.45;30.45;;;-0.80;99.90;;;;;;4973575;28;20684;-86
2021/12/07 00:50:09;;;;;;;57.83;30.80;;;-0.70;99.90;;;;;;4973158;28;20036;-86
2021/12/07 00:52:35;;;;;;;69.57;32.08;;;-0.70;99.90;;;;;;4973047;28;20054;-87
2021/12/07 00:55:05;;;;;;;61.63;31.60;;;-0.70;99.90;;;;;;4973194;28;20043;-87
2021/12/07 00:57:30;;;;;;;56.08;28.27;;;-0.80;99.90;;;;;;4982214;28;20046;-87
2021/12/07 00:59:56;;;;;;;56.17;28.02;;;-0.70;99.90;;;;;;4973519;28;20112;-86
2021/12/07 01:02:22;;;;;;;50.75;26.42;;;-0.70;99.90;;;;;;4956530;28;20066;-86
2021/12/07 01:04:54;;;;;;;52.13;25.98;;;-0.70;99.90;;;;;;4972747;28;20132;-86
2021/12/07 01:26:45;;;;;;;265.73;31.02;;;-0.80;99.90;;;;;;4972604;28;20118;-86
2021/12/07 01:29:11;;;;;;;71.28;23.67;;;-0.80;99.90;;;;;;4972661;28;20059;-86
2021/12/07 02:00:51;;;;;;;20.02;11.00;;;-0.50;99.90;;;;;;4971614;28;20436;-87
2021/12/07 02:03:25;;;;;;;25.23;13.38;;;-0.50;99.90;;;;;;4971155;28;20130;-88
2021/12/07 02:05:50;;;;;;;23.70;13.18;;;-0.50;99.90;;;;;;4971161;28;20063;-87
2021/12/07 02:08:17;;;;;;;36.22;13.73;;;-0.50;99.90;;;;;;4971515;28;20043;-88
2021/12/07 02:10:43;;;;;;;32.60;14.38;;;-0.50;99.90;;;;;;4971309;28;20035;-87
2021/12/07 02:15:54;;;;;;;36.45;15.32;;;-0.50;99.90;;;;;;4971618;28;20027;-87
2021/12/07 02:18:23;;;;;;;25.73;13.77;;;-0.40;99.90;;;;;;4971108;28;20507;-87
2021/12/07 02:20:49;;;;;;;31.02;15.63;;;-0.40;99.90;;;;;;4971617;28;20090;-89
2021/12/07 02:23:16;;;;;;;50.92;15.13;;;-0.40;99.90;;;;;;4971391;28;20452;-88
2021/12/07 02:25:43;;;;;;;268.48;27.35;;;-0.30;99.90;;;;;;4971388;28;20613;-88
2021/12/07 02:28:14;;;;;;;748.25;63.65;;;-0.30;99.90;;;;;;4971569;28;20035;-88
2021/12/07 02:30:41;;;;;;;761.50;60.47;;;-0.20;99.90;;;;;;4971428;28;20078;-88
2021/12/07 02:33:09;;;;;;;870.85;63.08;;;-0.20;99.90;;;;;;4971893;28;20081;-88
2021/12/07 02:35:35;;;;;;;751.50;63.13;;;-0.10;99.90;;;;;;4972189;28;20427;-88
2021/12/07 02:38:02;;;;;;;791.92;65.38;;;-0.10;99.90;;;;;;4956351;29;20027;-87
2021/12/07 02:40:31;;;;;;;1250.68;102.97;;;0.00;99.90;;;;;;4972454;28;20426;-88
2021/12/07 02:42:57;;;;;;;1042.72;81.20;;;0.00;99.90;;;;;;4972552;28;20039;-87
2021/12/07 02:45:23;;;;;;;1405.28;110.93;;;0.10;99.90;;;;;;4971458;28;20122;-88
2021/12/07 02:47:49;;;;;;;1070.72;83.63;;;0.10;99.90;;;;;;4972550;28;20034;-89
2021/12/07 02:50:16;;;;;;;1174.07;93.03;;;0.10;99.90;;;;;;4972442;28;20055;-88
2021/12/07 02:52:43;;;;;;;1070.40;85.25;;;0.10;99.90;;;;;;4972398;28;20059;-87
2021/12/07 02:55:10;;;;;;;1091.53;89.30;;;0.10;99.90;;;;;;4972260;28;20439;-87
2021/12/07 02:57:36;;;;;;;955.92;80.55;;;0.10;99.90;;;;;;4971788;28;20016;-87
2021/12/07 03:00:14;;;;;;;1138.05;97.70;;;0.10;99.90;;;;;;4971698;28;20090;-87
2021/12/07 03:02:46;;;;;;;1412.97;123.47;;;0.20;99.90;;;;;;4972191;28;20039;-87
2021/12/07 03:27:17;;;;;;;1005.13;81.40;;;0.20;99.90;;;;;;4971350;28;20024;-87
2021/12/07 03:29:44;;;;;;;1041.55;76.93;;;0.20;99.90;;;;;;4974627;28;20031;-87
2021/12/07 03:32:12;;;;;;;960.75;82.82;;;0.20;99.90;;;;;;4974700;28;20023;-87
2021/12/07 03:34:38;;;;;;;473.48;45.42;;;0.20;99.90;;;;;;4974385;28;20114;-87
2021/12/07 03:37:05;;;;;;;432.63;44.33;;;0.20;99.90;;;;;;4974682;28;20028;-88
2021/12/07 03:39:31;;;;;;;643.40;56.60;;;0.20;99.90;;;;;;4974675;28;20042;-88
2021/12/07 03:41:57;;;;;;;538.05;47.22;;;0.20;99.90;;;;;;4973851;28;20455;-88
2021/12/07 03:44:23;;;;;;;105.38;21.67;;;0.20;99.90;;;;;;4974282;28;20439;-87
2021/12/07 03:46:50;;;;;;;112.18;20.48;;;0.30;99.90;;;;;;4974135;28;20062;-85
2021/12/07 03:49:17;;;;;;;47.33;16.02;;;0.30;99.90;;;;;;4973596;28;20034;-87
2021/12/07 03:51:42;;;;;;;77.13;19.23;;;0.30;99.90;;;;;;4974145;28;20447;-87
2021/12/07 03:54:09;;;;;;;36.20;16.27;;;0.30;99.90;;;;;;4973526;28;20038;-87
2021/12/07 03:56:35;;;;;;;38.50;16.13;;;0.30;99.90;;;;;;4973574;28;20027;-87
2021/12/07 03:59:02;;;;;;;26.95;13.73;;;0.30;99.90;;;;;;4973692;28;20142;-86
2021/12/07 04:01:29;;;;;;;34.15;14.15;;;0.30;99.90;;;;;;4973737;28;20030;-87
2021/12/07 04:04:01;;;;;;;34.58;14.02;;;0.30;99.90;;;;;;4973586;28;20027;-87
2021/12/07 04:06:27;;;;;;;38.70;15.43;;;0.30;99.90;;;;;;4973758;28;20043;-87
2021/12/07 04:08:53;;;;;;;37.70;14.48;;;0.30;99.90;;;;;;4973649;28;20089;-87
2021/12/07 04:11:19;;;;;;;30.55;15.15;;;0.30;99.90;;;;;;4973686;28;20360;-86
2021/12/07 04:13:45;;;;;;;29.27;14.25;;;0.30;99.90;;;;;;4973250;28;20035;-87
2021/12/07 04:16:14;;;;;;;23.00;12.48;;;0.30;99.90;;;;;;4973665;28;20031;-87
2021/12/07 04:18:42;;;;;;;39.75;14.73;;;0.40;99.90;;;;;;4973222;28;20039;-87
2021/12/07 04:21:09;;;;;;;26.60;13.77;;;0.40;99.90;;;;;;4973493;28;20066;-88
2021/12/07 04:23:36;;;;;;;34.15;16.25;;;0.40;99.90;;;;;;4973215;28;20039;-87
2021/12/07 04:26:05;;;;;;;31.58;15.85;;;0.40;99.90;;;;;;4973209;28;20035;-86
2021/12/07 04:28:32;;;;;;;31.83;16.30;;;0.40;99.90;;;;;;4972261;28;20035;-86
2021/12/07 04:30:57;;;;;;;41.05;19.20;;;0.40;99.90;;;;;;4972631;28;20050;-86
2021/12/07 04:33:23;;;;;;;34.13;16.75;;;0.40;99.90;;;;;;4972034;28;20475;-85
2021/12/07 04:35:50;;;;;;;39.50;17.63;;;0.40;99.90;;;;;;4972517;28;20041;-86
2021/12/07 04:38:18;;;;;;;35.50;17.52;;;0.40;99.90;;;;;;4972122;28;20139;-86
2021/12/07 04:40:44;;;;;;;44.08;17.50;;;0.40;99.90;;;;;;4957465;29;20104;-86
2021/12/07 04:43:11;;;;;;;50.05;18.45;;;0.50;99.90;;;;;;4972498;28;20035;-86
2021/12/07 04:45:53;;;;;;;38.88;16.58;;;0.50;99.90;;;;;;4972802;28;20129;-86
2021/12/07 04:59:07;;;;;;;40.38;18.23;;;0.50;99.90;;;;;;4972799;28;20059;-87
2021/12/07 05:01:33;;;;;;;33.95;16.00;;;0.50;99.90;;;;;;4973001;28;20086;-86
2021/12/07 05:04:05;;;;;;;35.47;16.17;;;0.50;99.90;;;;;;4972514;28;20050;-87
2021/12/07 05:06:33;;;;;;;41.90;17.92;;;0.60;99.90;;;;;;4973022;28;20402;-88
2021/12/07 05:09:07;;;;;;;35.03;16.10;;;0.60;99.90;;;;;;4973167;28;20043;-89
2021/12/07 05:14:24;;;;;;;37.67;14.90;;;0.60;99.90;;;;;;4952065;28;20058;-87
2021/12/07 05:17:02;;;;;;;40.60;15.02;;;0.60;99.90;;;;;;4957340;29;20046;-87
2021/12/07 05:38:46;;;;;;;49.92;20.50;;;0.60;99.90;;;;;;4971462;28;20042;-85
2021/12/07 05:41:12;;;;;;;42.33;18.17;;;0.70;99.90;;;;;;4956340;29;20027;-85
2021/12/07 05:43:37;;;;;;;32.47;16.00;;;0.70;99.90;;;;;;4955890;29;20035;-85
2021/12/07 05:46:04;;;;;;;46.92;21.23;;;0.70;99.90;;;;;;4955104;28;20059;-85
2021/12/07 05:48:30;;;;;;;48.40;22.00;;;0.70;99.90;;;;;;4956402;29;20066;-85
2021/12/07 05:50:56;;;;;;;53.38;22.30;;;0.70;99.90;;;;;;4954047;28;20380;-84
2021/12/07 05:53:22;;;;;;;40.60;17.40;;;0.70;99.90;;;;;;4955991;28;20041;-85
2021/12/07 05:55:47;;;;;;;41.28;17.45;;;0.70;99.90;;;;;;4971142;28;20039;-84
2021/12/07 05:58:15;;;;;;;49.75;18.35;;;0.60;99.90;;;;;;4970864;28;20391;-84
2021/12/07 06:00:44;;;;;;;36.20;16.73;;;0.60;99.90;;;;;;4955819;29;20122;-84
2021/12/07 06:03:11;;;;;;;32.47;14.60;;;0.60;99.90;;;;;;4970319;28;20094;-84
2021/12/07 06:05:39;;;;;;;33.17;15.77;;;0.60;99.90;;;;;;4955788;28;20451;-84
2021/12/07 06:08:05;;;;;;;33.47;15.52;;;0.60;99.90;;;;;;4970745;28;20044;-84
2021/12/07 06:10:31;;;;;;;60.63;19.02;;;0.60;99.90;;;;;;4970739;28;20090;-84
2021/12/07 06:12:57;;;;;;;29.95;16.13;;;0.60;99.90;;;;;;4970329;28;20093;-83
2021/12/07 06:15:24;;;;;;;39.15;15.50;;;0.60;99.90;;;;;;4970327;28;20031;-84
2021/12/07 06:17:51;;;;;;;33.95;15.77;;;0.60;99.90;;;;;;4970634;28;20027;-83
2021/12/07 06:20:18;;;;;;;36.72;15.48;;;0.60;99.90;;;;;;4970614;28;20073;-84
2021/12/07 06:22:44;;;;;;;38.28;16.58;;;0.60;99.90;;;;;;4970230;28;20130;-84
2021/12/07 06:25:10;;;;;;;37.08;15.82;;;0.60;99.90;;;;;;4970317;28;20079;-84
2021/12/07 06:27:38;;;;;;;43.47;16.52;;;0.60;99.90;;;;;;4970629;28;20086;-84
2021/12/07 06:30:05;;;;;;;36.55;14.82;;;0.60;99.90;;;;;;4970435;28;20126;-84
2021/12/07 06:32:31;;;;;;;38.20;14.85;;;0.60;99.90;;;;;;4969392;28;20031;-84
2021/12/07 06:34:57;;;;;;;37.85;15.70;;;0.60;99.90;;;;;;4969947;28;20028;-84
2021/12/07 06:37:25;;;;;;;37.75;16.50;;;0.60;99.90;;;;;;4953904;28;20051;-84
2021/12/07 06:39:51;;;;;;;34.72;14.77;;;0.60;99.90;;;;;;4969947;28;20101;-85
2021/12/07 06:42:17;;;;;;;33.25;14.25;;;0.60;99.90;;;;;;4970003;28;20027;-84
2021/12/07 06:44:43;;;;;;;28.08;14.98;;;0.60;99.90;;;;;;4969881;28;20027;-84
2021/12/07 06:47:09;;;;;;;41.53;16.25;;;0.60;99.90;;;;;;4970184;28;20068;-84
2021/12/07 06:49:35;;;;;;;47.08;17.85;;;0.70;99.90;;;;;;4969833;28;20027;-84
2021/12/07 06:52:02;;;;;;;42.63;14.85;;;0.70;99.90;;;;;;4969834;28;20490;-84
2021/12/07 06:54:28;;;;;;;32.50;14.63;;;0.70;99.90;;;;;;4969886;28;20082;-85
2021/12/07 06:56:54;;;;;;;35.42;15.88;;;0.70;99.90;;;;;;4969968;28;20071;-84
2021/12/07 06:59:20;;;;;;;39.83;16.20;;;0.70;99.90;;;;;;4955052;28;20047;-84
2021/12/07 07:01:46;;;;;;;39.53;16.25;;;0.70;99.90;;;;;;4970856;28;20082;-84
2021/12/07 07:04:14;;;;;;;41.25;16.33;;;0.70;99.90;;;;;;4973430;28;20051;-83
2021/12/07 07:06:42;;;;;;;40.03;15.55;;;0.80;99.90;;;;;;4958823;29;20035;-84
2021/12/07 07:09:12;;;;;;;34.50;14.02;;;0.70;99.90;;;;;;4977865;28;20446;-84
2021/12/07 07:11:39;;;;;;;37.83;15.00;;;0.70;99.90;;;;;;4973698;28;20399;-84
2021/12/07 07:14:05;;;;;;;31.17;14.48;;;0.80;99.90;;;;;;4975331;28;20049;-84
2021/12/07 07:16:32;;;;;;;33.97;14.20;;;0.80;99.90;;;;;;4973291;28;20035;-85
2021/12/07 07:18:58;;;;;;;30.38;14.20;;;0.80;99.90;;;;;;4975617;28;20059;-84
2021/12/07 07:21:24;;;;;;;30.20;13.52;;;0.80;99.90;;;;;;4977613;28;20050;-84
2021/12/07 07:23:52;;;;;;;43.95;14.57;;;0.80;99.90;;;;;;4958234;28;20399;-84
2021/12/07 07:26:18;;;;;;;41.53;13.52;;;0.80;99.90;;;;;;4979251;28;20047;-84
2021/12/07 07:28:43;;;;;;;28.90;12.90;;;0.80;99.90;;;;;;4973520;28;20423;-85
2021/12/07 07:31:10;;;;;;;29.80;12.13;;;0.80;99.90;;;;;;4973401;28;20046;-85
2021/12/07 07:33:37;;;;;;;34.13;13.07;;;0.80;99.90;;;;;;4958477;28;20444;-85
2021/12/07 07:36:03;;;;;;;26.98;12.75;;;0.90;99.90;;;;;;4957999;29;20066;-85
2021/12/07 07:38:29;;;;;;;37.00;12.18;;;0.90;99.90;;;;;;4973129;28;20031;-85
2021/12/07 07:40:55;;;;;;;27.27;12.35;;;0.90;99.90;;;;;;4972658;28;20050;-85
2021/12/07 07:43:24;;;;;;;28.45;12.27;;;0.90;99.90;;;;;;4972615;28;20027;-86
2021/12/07 07:46:09;;;;;;;31.95;12.48;;;0.90;99.90;;;;;;4957325;28;20497;-86
2021/12/07 07:48:35;;;;;;;34.03;12.75;;;0.90;99.90;;;;;;4975456;28;20043;-86
2021/12/07 07:51:01;;;;;;;35.08;11.93;;;0.90;99.90;;;;;;4973019;28;20506;-86
2021/12/07 07:53:27;;;;;;;27.63;11.93;;;0.90;99.90;;;;;;4972727;28;20031;-86
2021/12/07 07:55:56;;;;;;;24.60;10.52;;;0.90;99.90;;;;;;4975871;28;20519;-85
2021/12/07 07:58:22;;;;;;;32.28;12.45;;;0.90;99.90;;;;;;4972978;28;20027;-86
2021/12/07 08:00:49;;;;;;;42.75;14.52;;;0.90;99.90;;;;;;4972927;28;20046;-86
2021/12/07 08:03:15;;;;;;;37.17;13.55;;;0.90;99.90;;;;;;4957448;29;20058;-86
2021/12/07 08:05:41;;;;;;;34.78;13.35;;;0.90;99.90;;;;;;4976018;28;20498;-85
2021/12/07 08:08:09;;;;;;;26.35;12.13;;;0.90;99.90;;;;;;4955758;29;20402;-85
2021/12/07 08:10:35;;;;;;;28.08;12.18;;;0.90;99.90;;;;;;4955671;29;20122;-85
2021/12/07 08:13:05;;;;;;;42.85;12.45;;;1.00;99.90;;;;;;4971431;28;20039;-85
2021/12/07 08:15:33;;;;;;;23.45;10.85;;;1.00;99.90;;;;;;4971977;28;20027;-84
2021/12/07 08:17:59;;;;;;;36.88;12.05;;;1.10;99.90;;;;;;4972044;28;20035;-87
2021/12/07 08:20:29;;;;;;;32.65;11.23;;;1.10;99.90;;;;;;4972072;28;20380;-87
2021/12/07 08:22:55;;;;;;;26.90;11.20;;;1.10;99.90;;;;;;4972032;28;20045;-86
2021/12/07 08:25:20;;;;;;;33.85;11.95;;;1.10;99.90;;;;;;4955612;28;20035;-86
2021/12/07 08:27:46;;;;;;;40.63;11.07;;;1.20;99.90;;;;;;4956084;28;20042;-86
2021/12/07 08:30:14;;;;;;;35.58;11.02;;;1.20;99.90;;;;;;4955983;29;20487;-86
2021/12/07 08:32:44;;;;;;;26.63;10.07;;;1.30;99.90;;;;;;4972095;28;20509;-86
2021/12/07 08:35:15;;;;;;;40.97;14.33;;;1.30;99.90;;;;;;4972025;28;20130;-86
2021/12/07 08:37:44;;;;;;;31.67;11.95;;;1.50;99.90;;;;;;4956110;29;20290;-86
2021/12/07 08:40:11;;;;;;;26.02;9.25;;;1.60;99.90;;;;;;4971736;28;20039;-86
2021/12/07 08:42:37;;;;;;;17.60;8.25;;;1.70;99.90;;;;;;4957177;28;20031;-86
2021/12/07 08:45:05;;;;;;;28.60;8.75;;;1.60;99.90;;;;;;4955760;28;20380;-86
2021/12/07 08:47:31;;;;;;;26.25;9.65;;;1.70;99.90;;;;;;4972008;28;20126;-86
2021/12/07 08:49:57;;;;;;;22.42;8.65;;;1.60;99.90;;;;;;4971669;28;20145;-86
2021/12/07 08:52:24;;;;;;;15.70;7.25;;;1.60;99.90;;;;;;4956081;29;20035;-86
2021/12/07 09:00:05;;;;;;;26.17;9.55;;;1.60;99.90;;;;;;4956779;28;20031;-86
2021/12/07 09:02:33;;;;;;;20.60;9.52;;;1.70;99.90;;;;;;4971779;28;20035;-84
2021/12/07 09:04:59;;;;;;;23.92;9.02;;;1.90;99.90;;;;;;4971590;28;20039;-86
2021/12/07 09:07:25;;;;;;;20.38;8.88;;;1.90;99.90;;;;;;4971744;28;20039;-87
2021/12/07 09:09:51;;;;;;;24.40;9.25;;;1.90;99.90;;;;;;4971798;28;20094;-86
2021/12/07 09:12:18;;;;;;;27.35;9.45;;;1.90;99.90;;;;;;4971736;28;20035;-87
2021/12/07 09:14:44;;;;;;;28.75;10.30;;;1.70;99.90;;;;;;4971539;28;20062;-85
2021/12/07 09:17:12;;;;;;;21.30;8.80;;;1.70;99.90;;;;;;4971641;28;20031;-85
2021/12/07 09:19:39;;;;;;;25.33;10.20;;;1.70;99.90;;;;;;4971352;28;20035;-86
2021/12/07 09:22:06;;;;;;;26.80;9.93;;;1.70;99.90;;;;;;4971149;28;20391;-86
2021/12/07 09:24:32;;;;;;;29.75;10.18;;;1.70;99.90;;;;;;4955958;28;20069;-86
2021/12/07 09:26:59;;;;;;;27.83;11.43;;;1.80;99.90;;;;;;4971276;28;20035;-86
2021/12/07 09:29:26;;;;;;;22.30;9.23;;;1.70;99.90;;;;;;4971684;28;20787;-86
2021/12/07 09:31:52;;;;;;;30.25;11.25;;;1.60;99.90;;;;;;4971450;28;20070;-86
2021/12/07 09:34:18;;;;;;;29.70;9.70;;;1.70;99.90;;;;;;4971500;28;20493;-85
2021/12/07 09:36:44;;;;;;;18.17;9.73;;;1.70;99.90;;;;;;4957188;28;20047;-86
2021/12/07 09:39:14;;;;;;;25.95;10.45;;;1.70;99.90;;;;;;4954925;28;20035;-86
2021/12/07 09:41:40;;;;;;;25.85;9.80;;;1.80;99.90;;;;;;4971236;28;20038;-86
2021/12/07 09:44:07;;;;;;;22.98;9.20;;;1.90;99.90;;;;;;4956100;29;20074;-86
2021/12/07 09:46:34;;;;;;;28.98;10.48;;;1.70;99.90;;;;;;4970866;28;20090;-85
2021/12/07 09:49:00;;;;;;;20.33;8.73;;;1.70;99.90;;;;;;4955102;29;20067;-85
2021/12/07 09:51:28;;;;;;;31.00;10.52;;;1.70;99.90;;;;;;4971351;28;20027;-85
2021/12/07 09:53:56;;;;;;;33.05;9.38;;;1.70;99.90;;;;;;4970905;28;20507;-85
2021/12/07 09:56:22;;;;;;;28.52;10.38;;;1.80;99.90;;;;;;4954817;28;20035;-85
2021/12/07 09:58:51;;;;;;;25.70;9.50;;;1.70;99.90;;;;;;4970785;28;20036;-85
2021/12/07 10:01:17;;;;;;;17.17;8.18;;;1.80;99.90;;;;;;4970445;28;20049;-85
2021/12/07 10:03:43;;;;;;;17.52;7.75;;;1.70;99.90;;;;;;4970753;28;20099;-85
2021/12/07 10:06:09;;;;;;;19.05;7.60;;;1.70;99.90;;;;;;4970663;28;20119;-84
2021/12/07 10:08:36;;;;;;;28.45;10.90;;;1.70;99.90;;;;;;4970861;28;20032;-83
2021/12/07 10:11:05;;;;;;;22.83;10.20;;;1.70;99.90;;;;;;4970591;28;20723;-84
2021/12/07 10:13:31;;;;;;;23.00;9.73;;;1.70;99.90;;;;;;4969925;28;20372;-84
2021/12/07 10:16:00;;;;;;;20.77;9.20;;;1.90;99.90;;;;;;4970387;28;20058;-84
2021/12/07 10:18:29;;;;;;;29.83;9.30;;;1.90;99.90;;;;;;4954534;28;20031;-84
2021/12/07 10:20:56;;;;;;;33.55;9.65;;;1.90;99.90;;;;;;4970220;28;20042;-84
2021/12/07 10:23:24;;;;;;;27.15;10.18;;;2.00;99.90;;;;;;4970289;28;20031;-84
2021/12/07 10:25:54;;;;;;;20.65;7.60;;;2.00;99.90;;;;;;4954554;28;20037;-84
2021/12/07 10:28:33;;;;;;;27.83;8.93;;;2.00;99.90;;;;;;4958227;28;20035;-84
2021/12/07 10:31:23;;;;;;;44.60;12.43;;;2.00;99.90;;;;;;4954224;29;20094;-84
2021/12/07 10:33:52;;;;;;;20.92;8.90;;;2.00;99.90;;;;;;4953883;28;20038;-84
2021/12/07 10:36:49;;;;;;;36.03;9.63;;;2.00;99.90;;;;;;4952051;28;20303;-85
2021/12/07 10:39:17;;;;;;;21.80;7.40;;;2.00;99.90;;;;;;4961643;28;20079;-83
2021/12/07 10:42:02;;;;;;;26.83;8.93;;;1.90;99.90;;;;;;4969931;28;20039;-84
2021/12/07 10:44:30;;;;;;;22.73;6.90;;;2.00;99.90;;;;;;4969463;28;20035;-83
2021/12/07 10:47:12;;;;;;;26.65;12.75;;;1.90;99.90;;;;;;4970070;28;20031;-83
2021/12/07 10:49:43;;;;;;;40.13;16.35;;;1.90;99.90;;;;;;4969900;28;20031;-84
2021/12/07 10:52:32;;;;;;;31.83;11.07;;;1.90;99.90;;;;;;4969836;28;20027;-84
2021/12/07 10:55:05;;;;;;;26.48;6.93;;;2.00;99.90;;;;;;4953654;28;20047;-84
2021/12/07 10:57:57;;;;;;;30.25;7.15;;;2.00;99.90;;;;;;4969912;28;20085;-84
2021/12/07 11:00:29;;;;;;;31.00;11.18;;;2.10;99.90;;;;;;4977313;28;20116;-84
2021/12/07 11:03:08;;;;;;;35.30;11.02;;;2.30;99.90;;;;;;4955455;28;20090;-84
2021/12/07 11:05:38;;;;;;;45.38;14.20;;;2.50;99.90;;;;;;4954611;29;20488;-84
2021/12/07 11:08:05;;;;;;;34.58;12.23;;;2.60;99.90;;;;;;4969572;28;20035;-83
2021/12/07 11:10:45;;;;;;;56.15;17.23;;;2.90;99.90;;;;;;4969568;28;20035;-83
2021/12/07 11:13:18;;;;;;;26.55;7.95;;;3.20;99.90;;;;;;4968037;28;20042;-84
2021/12/07 11:15:55;;;;;;;28.23;8.15;;;3.30;99.90;;;;;;4957343;28;20055;-84
2021/12/07 11:18:29;;;;;;;32.83;10.80;;;3.30;99.90;;;;;;4969378;28;20035;-83
2021/12/07 11:20:59;;;;;;;27.50;9.63;;;3.30;99.90;;;;;;4954881;29;20035;-83
2021/12/07 11:23:32;;;;;;;16.50;4.57;;;3.30;99.90;;;;;;4973419;28;20467;-84
2021/12/07 11:31:31;;;;;;;15.63;4.80;;;3.50;99.90;;;;;;4969125;28;20045;-83
2021/12/07 11:34:16;;;;;;;10.40;4.18;;;3.50;99.90;;;;;;4968785;28;20039;-83
2021/12/07 11:36:49;;;;;;;26.92;8.75;;;3.70;99.90;;;;;;4969845;28;20059;-83
2021/12/07 11:39:24;;;;;;;22.50;5.43;;;4.20;99.90;;;;;;4954850;29;20055;-83
2021/12/07 11:41:57;;;;;;;33.78;7.05;;;4.90;99.90;;;;;;4953031;29;20134;-83
2021/12/07 11:44:23;;;;;;;15.10;5.68;;;4.90;99.90;;;;;;4969134;28;20039;-84
2021/12/07 11:46:51;;;;;;;18.30;5.00;;;5.00;99.90;;;;;;4969320;28;20078;-83
2021/12/07 11:49:22;;;;;;;16.77;5.00;;;5.00;99.90;;;;;;4956289;28;20031;-83
2021/12/07 11:51:51;;;;;;;18.95;4.38;;;4.60;99.90;;;;;;4973033;28;20070;-83
2021/12/07 11:54:18;;;;;;;15.40;4.80;;;4.30;99.90;;;;;;4961779;28;20105;-83
2021/12/07 11:56:46;;;;;;;18.52;3.97;;;4.30;99.90;;;;;;4972322;28;20054;-83
2021/12/07 11:59:13;;;;;;;17.25;5.85;;;4.10;99.90;;;;;;4959168;28;20042;-84
2021/12/07 12:01:39;;;;;;;20.90;4.85;;;3.90;99.90;;;;;;4972470;28;20489;-83
2021/12/07 12:04:05;;;;;;;18.67;5.80;;;3.70;99.90;;;;;;4971949;28;20039;-83
2021/12/07 12:06:32;;;;;;;23.33;8.63;;;3.50;99.90;;;;;;4972610;28;20133;-83
2021/12/07 12:09:00;;;;;;;18.20;6.88;;;3.40;99.90;;;;;;4972402;28;20035;-84
2021/12/07 12:11:42;;;;;;;11.38;4.97;;;3.30;99.90;;;;;;4972333;28;20035;-83
2021/12/07 12:14:29;;;;;;;13.88;5.25;;;3.20;99.90;;;;;;4972501;28;20459;-83
2021/12/07 12:17:34;;;;;;;10.65;4.70;;;3.10;99.90;;;;;;4972454;28;20031;-83
2021/12/07 12:20:18;;;;;;;23.70;5.60;;;3.00;99.90;;;;;;4972029;28;20463;-83
2021/12/07 12:22:54;;;;;;;16.23;4.47;;;2.80;99.90;;;;;;4972079;28;20078;-84
2021/12/07 12:25:22;;;;;;;13.68;4.75;;;2.70;99.90;;;;;;4971993;28;20483;-83
2021/12/07 12:27:50;;;;;;;16.55;4.80;;;2.70;99.90;;;;;;4957221;28;20039;-83
2021/12/07 12:30:32;;;;;;;15.35;5.18;;;2.80;99.90;;;;;;4971905;28;20066;-84
2021/12/07 12:33:01;;;;;;;13.55;4.00;;;3.00;99.90;;;;;;4955713;29;20398;-83
2021/12/07 12:35:38;;;;;;;19.33;5.07;;;3.20;99.90;;;;;;4976154;28;20318;-83
2021/12/07 12:38:18;;;;;;;15.25;3.80;;;3.40;99.90;;;;;;4972184;28;20443;-83
2021/12/07 12:41:07;;;;;;;13.45;3.72;;;3.50;99.90;;;;;;4971939;28;20039;-83
2021/12/07 12:43:44;;;;;;;13.82;3.60;;;3.30;99.90;;;;;;4971944;28;20039;-84
2021/12/07 12:46:14;;;;;;;16.23;3.75;;;3.40;99.90;;;;;;4971913;28;20031;-84
2021/12/07 12:48:52;;;;;;;13.38;3.70;;;3.50;99.90;;;;;;4971831;28;20035;-84
2021/12/07 12:51:19;;;;;;;13.27;3.28;;;3.60;99.90;;;;;;4971764;28;20035;-84
2021/12/07 12:53:47;;;;;;;9.20;3.00;;;3.80;99.90;;;;;;4955050;29;20031;-84
2021/12/07 12:56:23;;;;;;;11.65;3.67;;;4.00;99.90;;;;;;4971633;28;20031;-84
2021/12/07 12:58:55;;;;;;;19.13;3.70;;;4.00;99.90;;;;;;4971434;28;20035;-84
2021/12/07 13:01:29;;;;;;;14.88;5.45;;;3.90;99.90;;;;;;4971689;28;20031;-84
2021/12/07 13:04:15;;;;;;;16.45;4.45;;;3.90;99.90;;;;;;4971384;28;20042;-84
2021/12/07 13:06:49;;;;;;;10.90;3.50;;;3.80;99.90;;;;;;4955297;29;20043;-84
2021/12/07 13:09:18;;;;;;;11.88;4.35;;;3.70;99.90;;;;;;4971578;28;20082;-84
2021/12/07 13:12:19;;;;;;;23.77;7.47;;;3.30;99.90;;;;;;4955326;28;20031;-84
2021/12/07 13:14:57;;;;;;;16.73;4.93;;;3.10;99.90;;;;;;4954147;29;20039;-84
2021/12/07 13:17:29;;;;;;;16.70;6.07;;;2.90;99.90;;;;;;4940981;28;20194;-84
2021/12/07 13:23:28;;;;;;;20.50;4.70;;;2.50;99.90;;;;;;4955949;29;20051;-84
2021/12/07 13:25:55;;;;;;;21.25;4.43;;;2.50;99.90;;;;;;4971213;28;20042;-84
2021/12/07 13:28:29;;;;;;;14.80;4.55;;;2.50;99.90;;;;;;4971130;28;20106;-84
2021/12/07 13:31:02;;;;;;;12.73;4.03;;;2.50;99.90;;;;;;4970802;28;20062;-84
2021/12/07 13:33:38;;;;;;;21.73;5.38;;;2.60;99.90;;;;;;4970847;28;20035;-84
2021/12/07 13:36:45;;;;;;;23.00;7.15;;;2.70;99.90;;;;;;4970636;28;20035;-84
2021/12/07 13:39:13;;;;;;;13.40;4.95;;;2.70;99.90;;;;;;4954145;29;20034;-84
2021/12/07 13:42:02;;;;;;;17.13;6.72;;;2.80;99.90;;;;;;4968870;28;20039;-87
2021/12/07 13:44:31;;;;;;;15.07;4.70;;;2.70;99.90;;;;;;4971579;28;20039;-88
2021/12/07 13:47:00;;;;;;;21.10;5.28;;;2.80;99.90;;;;;;4971515;28;20102;-87
2021/12/07 13:49:26;;;;;;;22.20;5.22;;;2.80;99.90;;;;;;4971380;28;20491;-87
2021/12/07 13:51:53;;;;;;;14.88;4.28;;;2.80;99.90;;;;;;4971220;28;20487;-88
2021/12/07 13:54:21;;;;;;;23.05;6.47;;;2.80;99.90;;;;;;4955970;28;20024;-88
2021/12/07 13:56:49;;;;;;;10.75;3.90;;;2.80;99.90;;;;;;4971560;28;20462;-87
2021/12/07 13:59:22;;;;;;;15.95;4.10;;;2.90;99.90;;;;;;4955449;28;20483;-87
2021/12/07 14:01:51;;;;;;;14.32;3.10;;;2.90;99.90;;;;;;4956981;29;20530;-87
2021/12/07 14:04:19;;;;;;;12.05;4.25;;;2.80;99.90;;;;;;4971164;28;20038;-88
2021/12/07 14:06:49;;;;;;;16.30;3.72;;;2.80;99.90;;;;;;4956892;28;20066;-87
2021/12/07 14:09:33;;;;;;;11.77;3.63;;;2.50;99.90;;;;;;4971764;28;20485;-88
2021/12/07 14:12:00;;;;;;;32.67;10.32;;;2.40;99.90;;;;;;4970666;28;20039;-88
2021/12/07 14:14:28;;;;;;;34.35;11.27;;;2.30;99.90;;;;;;4971120;28;20043;-87
2021/12/07 14:16:58;;;;;;;30.50;11.15;;;2.20;99.90;;;;;;4971404;28;20078;-88
2021/12/07 14:19:24;;;;;;;20.40;8.55;;;2.10;99.90;;;;;;4973527;28;20055;-88
2021/12/07 14:21:52;;;;;;;25.15;7.75;;;2.10;99.90;;;;;;4971175;28;20035;-88
2021/12/07 14:24:19;;;;;;;26.88;8.35;;;2.10;99.90;;;;;;4955193;28;20031;-88
2021/12/07 14:26:46;;;;;;;17.02;4.75;;;2.20;99.90;;;;;;4971456;28;20032;-88
2021/12/07 14:29:43;;;;;;;18.65;4.57;;;2.30;99.90;;;;;;4971433;28;20037;-88
2021/12/07 14:32:09;;;;;;;15.52;4.10;;;2.20;99.90;;;;;;4971228;28;20035;-88
2021/12/07 14:34:35;;;;;;;19.92;4.93;;;2.10;99.90;;;;;;4971389;28;20027;-89
2021/12/07 14:37:02;;;;;;;24.65;7.20;;;2.00;99.90;;;;;;4975279;28;20471;-88
2021/12/07 14:39:33;;;;;;;41.78;11.82;;;1.80;99.90;;;;;;4971302;28;20045;-87
2021/12/07 14:42:11;;;;;;;53.90;18.92;;;1.70;99.90;;;;;;4954993;28;20085;-90
2021/12/07 14:44:45;;;;;;;27.73;10.35;;;1.50;99.90;;;;;;4979717;28;20037;-90
2021/12/07 14:47:11;;;;;;;26.92;7.30;;;1.40;99.90;;;;;;4971033;28;20066;-89
2021/12/07 14:49:41;;;;;;;29.05;7.20;;;1.30;99.90;;;;;;4970233;28;20034;-88
2021/12/07 14:52:19;;;;;;;27.13;8.02;;;1.20;99.90;;;;;;4970628;28;20024;-88